Time;durP1;ratioP1;P1;durP2;ratioP2;P2;SDS_P1;SDS_P2;PMS_P1;PMS_P2;Temp;Humidity;BMP_temperature;BMP_pressure;BME280_temperature;BME280_humidity;BME280_pressure;Samples;Min_cycle;Max_cycle;Signal;HPM_P1;HPM_P2
2023/06/08 00:02:17;;;;;;;11.18;4.10;;;14.10;99.90;;;;;;5102011;28;20404;-71
2023/06/08 00:04:46;;;;;;;10.82;4.32;;;14.10;99.90;;;;;;5102840;28;20410;-72
2023/06/08 00:07:16;;;;;;;10.45;3.92;;;14.10;99.90;;;;;;5094583;28;20406;-71
2023/06/08 00:09:42;;;;;;;13.40;4.38;;;14.10;99.90;;;;;;5100162;28;21105;-72
2023/06/08 00:12:08;;;;;;;11.02;4.10;;;14.10;99.90;;;;;;5099531;28;20465;-72
2023/06/08 00:14:34;;;;;;;13.40;4.72;;;14.00;99.90;;;;;;5086653;28;20409;-72
2023/06/08 00:17:03;;;;;;;11.80;4.03;;;14.00;99.90;;;;;;5093099;28;20496;-72
2023/06/08 00:19:33;;;;;;;9.98;3.80;;;14.10;99.90;;;;;;5102862;28;20396;-71
2023/06/08 00:22:04;;;;;;;11.40;3.83;;;14.00;99.90;;;;;;5105620;28;20404;-72
2023/06/08 00:24:31;;;;;;;12.75;4.18;;;14.00;99.90;;;;;;5101764;28;20819;-72
2023/06/08 00:26:56;;;;;;;13.20;4.75;;;14.00;99.90;;;;;;5094514;28;20446;-71
2023/06/08 00:29:22;;;;;;;12.18;3.80;;;14.00;99.90;;;;;;5090014;28;20795;-71
2023/06/08 00:31:48;;;;;;;14.37;4.50;;;14.00;99.90;;;;;;5086454;28;20497;-71
2023/06/08 00:34:14;;;;;;;10.75;4.00;;;14.00;99.90;;;;;;5098244;28;20416;-71
2023/06/08 00:36:40;;;;;;;14.27;4.00;;;14.00;99.90;;;;;;5096236;28;20453;-71
2023/06/08 00:39:06;;;;;;;13.40;4.40;;;14.00;99.90;;;;;;5068724;28;20481;-71
2023/06/08 00:41:31;;;;;;;11.68;4.28;;;14.00;99.90;;;;;;5104029;28;20401;-72
2023/06/08 00:43:57;;;;;;;14.27;4.50;;;14.00;99.90;;;;;;5102919;28;20400;-72
2023/06/08 00:46:30;;;;;;;12.75;4.32;;;14.00;99.90;;;;;;5105156;28;20912;-72
2023/06/08 00:48:56;;;;;;;12.45;4.30;;;14.00;99.90;;;;;;5103816;28;20428;-72
2023/06/08 00:51:23;;;;;;;13.25;4.35;;;14.10;99.90;;;;;;5080402;28;20411;-72
2023/06/08 00:53:49;;;;;;;11.35;3.90;;;14.10;99.90;;;;;;5086606;28;20831;-71
2023/06/08 00:56:16;;;;;;;11.65;4.00;;;14.00;99.90;;;;;;5093003;28;20404;-72
2023/06/08 00:58:49;;;;;;;11.57;4.15;;;14.10;99.90;;;;;;5101818;28;20406;-72
2023/06/08 01:01:19;;;;;;;11.98;4.53;;;14.00;99.90;;;;;;5098027;28;20416;-71
2023/06/08 01:03:48;;;;;;;13.73;4.97;;;14.00;99.90;;;;;;5104369;28;20920;-72
2023/06/08 01:06:16;;;;;;;11.50;4.50;;;14.00;99.90;;;;;;5106102;28;20397;-71
2023/06/08 01:09:11;;;;;;;14.52;4.97;;;14.00;99.90;;;;;;5090275;28;20411;-71
2023/06/08 01:11:52;;;;;;;12.77;5.63;;;14.00;99.90;;;;;;5087443;28;20929;-72
2023/06/08 01:14:35;;;;;;;13.15;5.00;;;14.00;99.90;;;;;;5084001;28;20408;-71
2023/06/08 01:17:03;;;;;;;11.63;4.90;;;14.00;99.90;;;;;;5103398;28;20424;-72
2023/06/08 01:20:04;;;;;;;15.45;4.93;;;13.90;99.90;;;;;;5109336;28;20411;-71
2023/06/08 01:22:56;;;;;;;11.57;4.53;;;13.90;99.90;;;;;;5089721;28;20420;-71
2023/06/08 01:25:28;;;;;;;14.98;5.03;;;13.90;99.90;;;;;;5078382;28;20413;-72
2023/06/08 01:28:13;;;;;;;13.95;4.57;;;13.90;99.90;;;;;;5079454;28;20428;-72
2023/06/08 01:30:40;;;;;;;11.40;4.60;;;13.90;99.90;;;;;;5107234;28;20413;-72
2023/06/08 01:33:08;;;;;;;12.30;4.63;;;13.80;99.90;;;;;;5110106;28;20495;-72
2023/06/08 01:35:34;;;;;;;11.20;4.53;;;13.80;99.90;;;;;;5092933;28;20489;-71
2023/06/08 01:38:28;;;;;;;15.65;5.03;;;13.90;99.90;;;;;;5101033;28;20571;-72
2023/06/08 01:40:57;;;;;;;12.02;4.70;;;13.80;99.90;;;;;;5109115;28;20445;-72
2023/06/08 01:43:26;;;;;;;13.85;4.70;;;13.80;99.90;;;;;;5094937;28;21307;-72
2023/06/08 01:45:58;;;;;;;16.57;5.10;;;13.80;99.90;;;;;;5091544;28;20412;-72
2023/06/08 01:48:26;;;;;;;11.48;4.80;;;13.80;99.90;;;;;;5105183;28;20394;-72
2023/06/08 01:50:53;;;;;;;15.87;4.97;;;13.80;99.90;;;;;;5109265;28;20403;-72
2023/06/08 01:53:18;;;;;;;12.73;4.95;;;13.80;99.90;;;;;;5105977;28;20413;-72
2023/06/08 01:55:49;;;;;;;14.30;5.38;;;13.70;99.90;;;;;;5108628;28;20396;-72
2023/06/08 01:58:15;;;;;;;13.93;5.37;;;13.70;99.90;;;;;;5102115;28;20511;-72
2023/06/08 02:00:41;;;;;;;13.57;5.90;;;13.70;99.90;;;;;;5100219;28;20487;-72
2023/06/08 02:03:06;;;;;;;12.73;4.83;;;13.70;99.90;;;;;;5107057;28;20407;-72
2023/06/08 02:05:32;;;;;;;11.75;4.93;;;13.70;99.90;;;;;;5108775;28;20400;-72
2023/06/08 02:07:58;;;;;;;15.53;4.70;;;13.70;99.90;;;;;;5103922;28;20402;-71
2023/06/08 02:10:23;;;;;;;13.07;4.60;;;13.70;99.90;;;;;;5100332;28;20523;-71
2023/06/08 02:12:49;;;;;;;12.27;4.50;;;13.70;99.90;;;;;;5103135;28;20485;-71
2023/06/08 02:15:15;;;;;;;11.30;4.70;;;13.70;99.90;;;;;;5098989;28;20919;-71
2023/06/08 02:17:42;;;;;;;13.63;4.75;;;13.70;99.90;;;;;;5100043;28;20434;-71
2023/06/08 02:20:09;;;;;;;13.88;4.38;;;13.70;99.90;;;;;;5078503;28;20491;-71
2023/06/08 02:22:36;;;;;;;11.33;4.53;;;13.70;99.90;;;;;;5102877;28;20433;-72
2023/06/08 02:25:07;;;;;;;13.15;4.63;;;13.70;99.90;;;;;;5106962;28;20405;-72
2023/06/08 02:27:36;;;;;;;14.43;4.60;;;13.70;99.90;;;;;;5091537;28;20455;-72
2023/06/08 02:30:07;;;;;;;13.50;4.93;;;13.70;99.90;;;;;;5104769;28;20970;-71
2023/06/08 02:32:32;;;;;;;11.55;4.70;;;13.70;99.90;;;;;;5102521;28;20451;-72
2023/06/08 02:35:00;;;;;;;14.77;4.40;;;13.70;99.90;;;;;;5105061;28;21231;-72
2023/06/08 02:37:26;;;;;;;12.77;4.38;;;13.70;99.90;;;;;;5102360;28;20428;-71
2023/06/08 02:39:51;;;;;;;14.52;4.20;;;13.70;99.90;;;;;;5106347;28;20512;-72
2023/06/08 02:42:20;;;;;;;18.15;5.50;;;13.60;99.90;;;;;;5102222;28;20404;-72
2023/06/08 02:44:46;;;;;;;16.27;4.95;;;13.60;99.90;;;;;;5103770;28;20408;-72
2023/06/08 02:47:16;;;;;;;13.65;4.43;;;13.60;99.90;;;;;;5098210;28;20416;-72
2023/06/08 02:49:42;;;;;;;13.65;4.53;;;13.60;99.90;;;;;;5104596;28;20855;-72
2023/06/08 02:52:08;;;;;;;14.45;4.63;;;13.60;99.90;;;;;;5091089;28;20412;-72
2023/06/08 02:54:34;;;;;;;18.03;4.40;;;13.50;99.90;;;;;;5103158;28;20928;-71
2023/06/08 02:57:00;;;;;;;13.43;4.40;;;13.60;99.90;;;;;;5098825;28;20504;-72
2023/06/08 02:59:27;;;;;;;12.57;4.25;;;13.60;99.90;;;;;;5097828;28;20540;-72
2023/06/08 03:01:53;;;;;;;11.93;4.18;;;13.60;99.90;;;;;;5093917;28;20406;-72
2023/06/08 03:04:22;;;;;;;15.23;4.32;;;13.60;99.90;;;;;;5100980;28;20407;-72
2023/06/08 03:06:53;;;;;;;11.80;4.65;;;13.50;99.90;;;;;;5094161;28;20421;-71
2023/06/08 03:09:29;;;;;;;11.88;4.32;;;13.50;99.90;;;;;;5081143;28;20417;-72
2023/06/08 03:11:55;;;;;;;14.15;4.75;;;13.40;99.90;;;;;;5093930;28;20399;-72
2023/06/08 03:14:28;;;;;;;14.23;4.65;;;13.40;99.90;;;;;;5088518;28;20405;-72
2023/06/08 03:17:02;;;;;;;12.00;4.13;;;13.40;99.90;;;;;;5093441;28;20422;-72
2023/06/08 03:19:31;;;;;;;13.55;4.80;;;13.40;99.90;;;;;;5095033;28;20436;-72
2023/06/08 03:22:00;;;;;;;11.57;4.00;;;13.40;99.90;;;;;;5091334;28;20424;-72
2023/06/08 03:24:31;;;;;;;10.57;4.00;;;13.40;99.90;;;;;;5075648;28;20429;-72
2023/06/08 03:26:58;;;;;;;13.25;4.32;;;13.40;99.90;;;;;;5092555;28;20389;-72
2023/06/08 03:29:24;;;;;;;11.43;3.95;;;13.40;99.90;;;;;;5093456;28;20436;-71
2023/06/08 03:31:50;;;;;;;13.63;4.88;;;13.40;99.90;;;;;;5088182;28;20536;-72
2023/06/08 03:34:17;;;;;;;12.13;4.68;;;13.40;99.90;;;;;;5093116;28;20409;-71
2023/06/08 03:36:43;;;;;;;10.13;4.55;;;13.40;99.90;;;;;;5098181;28;20495;-71
2023/06/08 03:39:10;;;;;;;12.55;4.80;;;13.40;99.90;;;;;;5093201;28;20528;-72
2023/06/08 03:41:36;;;;;;;15.97;4.63;;;13.40;99.90;;;;;;5093588;28;20406;-72
2023/06/08 03:44:01;;;;;;;10.68;4.15;;;13.40;99.90;;;;;;5074853;28;20413;-71
2023/06/08 03:46:27;;;;;;;13.90;4.50;;;13.40;99.90;;;;;;5095060;28;20442;-71
2023/06/08 03:48:53;;;;;;;14.00;4.47;;;13.40;99.90;;;;;;5092854;28;20405;-72
2023/06/08 03:51:21;;;;;;;15.00;4.63;;;13.40;99.90;;;;;;5095022;28;20489;-72
2023/06/08 03:53:48;;;;;;;14.95;5.00;;;13.40;99.90;;;;;;5091456;28;20471;-71
2023/06/08 03:56:14;;;;;;;12.45;4.28;;;13.40;99.90;;;;;;5091904;28;20402;-71
2023/06/08 03:58:41;;;;;;;11.52;4.53;;;13.50;99.90;;;;;;5089392;28;20433;-71
2023/06/08 04:01:10;;;;;;;13.00;4.38;;;13.50;99.90;;;;;;5101135;28;21250;-71
2023/06/08 04:03:36;;;;;;;13.95;4.60;;;13.50;99.90;;;;;;5105503;28;20408;-71
2023/06/08 04:06:02;;;;;;;12.40;4.28;;;13.50;99.90;;;;;;5106731;28;20400;-71
2023/06/08 04:08:31;;;;;;;11.65;4.97;;;13.50;99.90;;;;;;5107034;28;20825;-71
2023/06/08 04:10:58;;;;;;;14.50;4.78;;;13.50;99.90;;;;;;5105639;28;20396;-71
2023/06/08 04:13:23;;;;;;;11.93;4.65;;;13.40;99.90;;;;;;5095390;28;20393;-71
2023/06/08 04:15:49;;;;;;;12.93;4.43;;;13.50;99.90;;;;;;5106989;28;21333;-71
2023/06/08 04:18:15;;;;;;;12.27;4.03;;;13.50;99.90;;;;;;5106662;28;20994;-71
2023/06/08 04:20:41;;;;;;;14.40;4.38;;;13.50;99.90;;;;;;5104014;28;20396;-71
2023/06/08 04:23:06;;;;;;;12.00;4.73;;;13.50;99.90;;;;;;5094939;28;20392;-71
2023/06/08 04:25:32;;;;;;;10.57;4.28;;;13.50;99.90;;;;;;5093782;28;20397;-71
2023/06/08 04:27:58;;;;;;;14.38;4.55;;;13.40;99.90;;;;;;5099350;28;20434;-71
2023/06/08 04:30:26;;;;;;;12.47;4.77;;;13.40;99.90;;;;;;5099411;28;20431;-71
2023/06/08 04:32:51;;;;;;;12.00;4.67;;;13.40;99.90;;;;;;5099999;28;20764;-71
2023/06/08 04:35:17;;;;;;;11.43;4.60;;;13.50;99.90;;;;;;5087967;28;20402;-71
2023/06/08 04:37:43;;;;;;;11.55;4.38;;;13.50;99.90;;;;;;5106403;28;20424;-71
2023/06/08 04:40:09;;;;;;;10.90;4.28;;;13.50;99.90;;;;;;5103830;28;20397;-71
2023/06/08 04:42:39;;;;;;;12.93;4.80;;;13.60;99.90;;;;;;5105427;28;20894;-71
2023/06/08 04:45:08;;;;;;;14.20;4.82;;;13.60;99.90;;;;;;5104369;28;20423;-71
2023/06/08 04:47:35;;;;;;;15.95;5.10;;;13.60;99.90;;;;;;5076191;28;20406;-71
2023/06/08 04:50:02;;;;;;;12.07;4.47;;;13.60;99.90;;;;;;5098205;28;20816;-71
2023/06/08 04:52:27;;;;;;;11.53;4.37;;;13.60;99.90;;;;;;5092280;28;20949;-71
2023/06/08 04:54:53;;;;;;;13.05;4.57;;;13.60;99.90;;;;;;5105649;28;20515;-71
2023/06/08 04:57:21;;;;;;;12.20;4.00;;;13.70;99.90;;;;;;5109456;28;20416;-71
2023/06/08 04:59:47;;;;;;;12.57;4.60;;;13.70;99.90;;;;;;5096023;28;20405;-71
2023/06/08 05:02:13;;;;;;;13.88;4.85;;;13.70;99.90;;;;;;5109607;28;20401;-71
2023/06/08 05:04:39;;;;;;;15.07;4.80;;;13.70;99.90;;;;;;5109864;28;20392;-71
2023/06/08 05:07:05;;;;;;;12.47;4.33;;;13.70;99.90;;;;;;5109805;28;20443;-71
2023/06/08 05:09:30;;;;;;;13.68;4.93;;;13.70;99.90;;;;;;5107254;27;20438;-71
2023/06/08 05:11:56;;;;;;;10.33;5.03;;;13.70;99.90;;;;;;5099080;28;20396;-71
2023/06/08 05:14:22;;;;;;;14.15;4.30;;;13.80;99.90;;;;;;5095265;28;20406;-71
2023/06/08 05:16:47;;;;;;;11.17;4.13;;;13.70;99.90;;;;;;5109454;28;20408;-67
2023/06/08 05:19:13;;;;;;;14.73;4.22;;;13.70;99.90;;;;;;5106233;28;20524;-69
2023/06/08 05:21:40;;;;;;;12.63;4.30;;;13.80;99.90;;;;;;5108533;28;20996;-70
2023/06/08 05:24:06;;;;;;;17.07;5.03;;;13.80;99.90;;;;;;5107630;28;20774;-69
2023/06/08 05:26:32;;;;;;;11.38;4.43;;;13.80;99.90;;;;;;5108924;28;21233;-69
2023/06/08 05:28:58;;;;;;;13.53;4.57;;;13.80;99.90;;;;;;5094831;28;20414;-70
2023/06/08 05:31:24;;;;;;;11.20;4.10;;;13.90;99.90;;;;;;5091876;28;20418;-71
2023/06/08 05:33:50;;;;;;;13.10;4.20;;;13.90;99.90;;;;;;5101107;28;20524;-71
2023/06/08 05:36:15;;;;;;;14.60;4.90;;;14.00;99.90;;;;;;5099748;28;20412;-71
2023/06/08 05:38:41;;;;;;;11.80;4.37;;;14.00;99.90;;;;;;5090486;28;20433;-71
2023/06/08 05:41:07;;;;;;;12.82;4.57;;;14.00;99.90;;;;;;5107803;28;20874;-71
2023/06/08 05:43:32;;;;;;;13.43;4.30;;;14.00;99.90;;;;;;5103938;28;20408;-71
2023/06/08 05:45:58;;;;;;;11.40;3.90;;;14.10;99.90;;;;;;5099577;28;20931;-71
2023/06/08 05:48:24;;;;;;;15.70;4.70;;;14.10;99.90;;;;;;5082241;28;20454;-71
2023/06/08 05:50:50;;;;;;;13.33;4.10;;;14.10;99.90;;;;;;5105319;28;20404;-71
2023/06/08 05:53:15;;;;;;;11.98;3.92;;;14.10;99.90;;;;;;5086217;28;20407;-71
2023/06/08 05:55:41;;;;;;;14.83;4.40;;;14.20;99.90;;;;;;5100177;28;20445;-71
2023/06/08 05:58:08;;;;;;;12.75;3.92;;;14.20;99.90;;;;;;5080887;28;20441;-71
2023/06/08 06:00:34;;;;;;;12.82;3.90;;;14.30;99.90;;;;;;5079148;28;20410;-72
2023/06/08 06:02:59;;;;;;;12.47;3.67;;;14.30;99.90;;;;;;5106833;28;20396;-71
2023/06/08 06:05:25;;;;;;;14.93;4.20;;;14.40;99.90;;;;;;5107984;28;20404;-71
2023/06/08 06:07:51;;;;;;;12.63;3.80;;;14.50;99.90;;;;;;5105747;28;20960;-71
2023/06/08 06:10:16;;;;;;;14.13;4.22;;;14.50;99.90;;;;;;5107976;28;20441;-72
2023/06/08 06:12:42;;;;;;;11.23;3.60;;;14.60;99.90;;;;;;5093631;28;20762;-71
2023/06/08 06:15:08;;;;;;;12.73;3.97;;;14.60;99.90;;;;;;5107353;28;20412;-71
2023/06/08 06:17:34;;;;;;;12.85;4.00;;;14.70;99.90;;;;;;5086469;28;20516;-71
2023/06/08 06:19:59;;;;;;;13.17;3.80;;;14.70;99.90;;;;;;5107247;28;20860;-71
2023/06/08 06:22:25;;;;;;;11.55;3.63;;;14.70;99.90;;;;;;5086719;28;20414;-71
2023/06/08 06:24:51;;;;;;;13.55;4.18;;;14.70;99.90;;;;;;5104107;28;20758;-71
2023/06/08 06:27:16;;;;;;;14.77;4.00;;;14.70;99.90;;;;;;5102180;28;20750;-71
2023/06/08 06:29:42;;;;;;;14.27;3.95;;;14.70;99.90;;;;;;5104679;28;20882;-71
2023/06/08 06:32:08;;;;;;;10.30;3.75;;;14.80;99.90;;;;;;5101510;28;20580;-71
2023/06/08 06:34:34;;;;;;;16.70;4.05;;;14.90;99.90;;;;;;5103234;28;20404;-71
2023/06/08 06:37:00;;;;;;;14.25;4.28;;;15.00;99.90;;;;;;5101937;28;20408;-71
2023/06/08 06:39:27;;;;;;;12.80;3.80;;;15.10;99.90;;;;;;5100521;28;21030;-71
2023/06/08 06:41:53;;;;;;;10.50;3.55;;;15.20;99.90;;;;;;5102117;28;20517;-71
2023/06/08 06:44:18;;;;;;;13.07;4.18;;;15.20;99.90;;;;;;5083117;28;20392;-71
2023/06/08 06:46:44;;;;;;;13.47;3.97;;;15.10;99.90;;;;;;5101490;28;20400;-71
2023/06/08 06:49:10;;;;;;;11.48;3.65;;;15.00;99.90;;;;;;5101065;28;20411;-71
2023/06/08 06:51:36;;;;;;;13.60;3.53;;;15.00;99.90;;;;;;5099745;28;20397;-71
2023/06/08 06:54:02;;;;;;;14.55;3.97;;;15.10;99.90;;;;;;5100184;28;20411;-71
2023/06/08 06:56:28;;;;;;;13.70;4.03;;;15.10;99.90;;;;;;5100811;28;20464;-71
2023/06/08 06:58:53;;;;;;;11.93;3.85;;;15.10;99.90;;;;;;5096137;28;20429;-71
2023/06/08 07:01:19;;;;;;;13.27;4.30;;;15.20;99.90;;;;;;5088346;28;20799;-71
2023/06/08 07:03:46;;;;;;;10.93;3.83;;;15.30;99.90;;;;;;5108381;28;20396;-71
2023/06/08 07:06:15;;;;;;;10.63;3.87;;;15.30;99.90;;;;;;5106459;28;20413;-71
2023/06/08 07:08:44;;;;;;;11.83;3.97;;;15.40;99.90;;;;;;5100214;28;20402;-71
2023/06/08 07:11:11;;;;;;;12.10;4.00;;;15.40;99.90;;;;;;5100609;28;20948;-71
2023/06/08 07:13:37;;;;;;;14.35;4.35;;;15.30;99.90;;;;;;5088740;28;20416;-71
2023/06/08 07:16:03;;;;;;;13.80;4.07;;;15.40;99.90;;;;;;5091657;28;20398;-71
2023/06/08 07:18:29;;;;;;;12.50;4.22;;;15.40;99.90;;;;;;5105136;28;20451;-71
2023/06/08 07:20:55;;;;;;;13.82;4.50;;;15.50;99.90;;;;;;5091797;28;20474;-71
2023/06/08 07:23:21;;;;;;;11.90;4.07;;;15.60;99.90;;;;;;5106004;28;20403;-72
2023/06/08 07:25:47;;;;;;;11.10;4.00;;;15.70;99.90;;;;;;5103864;28;20402;-71
2023/06/08 07:28:12;;;;;;;13.48;3.97;;;15.60;99.90;;;;;;5106224;28;20762;-71
2023/06/08 07:30:38;;;;;;;14.33;4.27;;;15.70;99.90;;;;;;5102202;28;20406;-71
2023/06/08 07:33:04;;;;;;;13.70;4.50;;;15.70;99.90;;;;;;5105664;28;20411;-71
2023/06/08 07:35:29;;;;;;;13.63;3.90;;;15.70;99.90;;;;;;5102785;28;20405;-71
2023/06/08 07:37:55;;;;;;;14.02;4.63;;;15.80;99.90;;;;;;5103965;28;20428;-71
2023/06/08 07:40:21;;;;;;;14.93;4.37;;;15.90;99.90;;;;;;5100800;28;20980;-71
2023/06/08 07:42:47;;;;;;;11.98;3.90;;;15.80;99.90;;;;;;5103089;28;20423;-71
2023/06/08 07:45:13;;;;;;;12.63;3.80;;;15.80;99.90;;;;;;5091420;28;20907;-71
2023/06/08 07:47:42;;;;;;;10.50;3.67;;;15.80;99.90;;;;;;5103301;28;20883;-71
2023/06/08 07:50:10;;;;;;;13.05;4.35;;;15.70;99.90;;;;;;5099555;28;20398;-71
2023/06/08 07:52:36;;;;;;;12.55;3.67;;;15.80;99.90;;;;;;5094815;28;20404;-71
2023/06/08 07:55:02;;;;;;;12.43;3.80;;;15.90;99.90;;;;;;5098685;28;20552;-71
2023/06/08 07:57:29;;;;;;;12.82;3.78;;;16.00;99.90;;;;;;5101478;28;20444;-71
2023/06/08 07:59:55;;;;;;;11.95;3.95;;;16.10;99.90;;;;;;5075296;28;20406;-72
2023/06/08 08:02:21;;;;;;;12.45;3.97;;;16.20;99.90;;;;;;5107089;28;20407;-71
2023/06/08 08:04:46;;;;;;;13.43;4.10;;;16.30;99.90;;;;;;5105670;28;20402;-71
2023/06/08 08:07:12;;;;;;;11.53;4.10;;;16.30;99.90;;;;;;5105773;28;20411;-71
2023/06/08 08:09:38;;;;;;;11.68;3.88;;;16.20;99.90;;;;;;5103432;28;20430;-71
2023/06/08 08:12:03;;;;;;;13.63;4.23;;;16.20;99.90;;;;;;5088358;28;20394;-72
2023/06/08 08:14:29;;;;;;;12.80;4.15;;;16.30;99.90;;;;;;5102008;28;20402;-71
2023/06/08 08:16:55;;;;;;;11.50;3.78;;;16.30;99.90;;;;;;5106862;28;20855;-71
2023/06/08 08:19:20;;;;;;;13.23;3.93;;;16.40;99.90;;;;;;5104387;28;20488;-71
2023/06/08 08:21:46;;;;;;;10.90;3.53;;;16.40;99.90;;;;;;5106442;28;20876;-72
2023/06/08 08:24:11;;;;;;;10.13;3.78;;;16.40;99.90;;;;;;5101333;28;20406;-72
2023/06/08 08:26:40;;;;;;;13.27;4.13;;;16.40;99.90;;;;;;5105093;28;20396;-72
2023/06/08 08:29:07;;;;;;;11.60;3.67;;;16.40;99.90;;;;;;5086584;28;20422;-72
2023/06/08 08:31:32;;;;;;;11.13;3.78;;;16.50;99.90;;;;;;5108277;28;21002;-72
2023/06/08 08:33:58;;;;;;;9.40;3.20;;;16.60;99.90;;;;;;5105192;28;20413;-72
2023/06/08 08:36:24;;;;;;;11.70;3.37;;;16.70;99.90;;;;;;5100179;28;20486;-72
2023/06/08 08:38:49;;;;;;;11.20;3.50;;;16.70;99.90;;;;;;5106379;28;20461;-72
2023/06/08 08:41:19;;;;;;;9.90;3.17;;;16.80;99.90;;;;;;5108362;28;20409;-71
2023/06/08 08:44:01;;;;;;;10.07;3.45;;;16.80;99.90;;;;;;5107071;28;20409;-72
2023/06/08 08:46:37;;;;;;;11.20;3.55;;;16.90;99.90;;;;;;5109320;28;20488;-72
2023/06/08 08:49:08;;;;;;;12.32;3.50;;;16.90;99.90;;;;;;5091806;28;20394;-72
2023/06/08 08:51:38;;;;;;;11.20;3.33;;;16.90;99.90;;;;;;5102557;28;20607;-72
2023/06/08 08:54:04;;;;;;;10.77;4.10;;;17.00;99.90;;;;;;5109231;28;20396;-72
2023/06/08 08:56:35;;;;;;;12.73;3.70;;;17.00;99.90;;;;;;5105623;28;20455;-72
2023/06/08 08:59:02;;;;;;;10.80;3.50;;;17.10;99.90;;;;;;5090059;28;20406;-72
2023/06/08 09:01:28;;;;;;;12.13;3.22;;;17.20;99.90;;;;;;5104676;28;20404;-72
2023/06/08 09:03:54;;;;;;;11.63;3.40;;;17.30;99.90;;;;;;5109682;28;20411;-72
2023/06/08 09:06:19;;;;;;;13.15;3.53;;;17.30;99.90;;;;;;5094792;27;20402;-72
2023/06/08 09:08:48;;;;;;;10.80;3.30;;;17.30;99.90;;;;;;5097926;28;20484;-72
2023/06/08 09:11:14;;;;;;;10.02;3.30;;;17.40;99.90;;;;;;5088506;28;20416;-72
2023/06/08 09:13:39;;;;;;;9.43;3.10;;;17.60;99.90;;;;;;5108179;28;20475;-72
2023/06/08 09:16:14;;;;;;;9.25;3.22;;;17.60;99.90;;;;;;5106952;28;20460;-72
2023/06/08 09:18:41;;;;;;;10.60;3.58;;;17.70;99.90;;;;;;5090596;28;20524;-72
2023/06/08 09:21:27;;;;;;;9.23;2.97;;;17.80;99.90;;;;;;5106617;28;20753;-72
2023/06/08 09:24:05;;;;;;;10.55;3.47;;;17.90;99.90;;;;;;5107722;28;20914;-72
2023/06/08 09:26:32;;;;;;;12.70;3.67;;;18.00;99.90;;;;;;5097246;28;20800;-72
2023/06/08 09:29:01;;;;;;;11.07;3.47;;;18.00;99.90;;;;;;5105750;28;20435;-72
2023/06/08 09:31:29;;;;;;;10.60;3.08;;;18.20;99.90;;;;;;5107658;28;20456;-72
2023/06/08 09:34:08;;;;;;;10.48;3.65;;;18.40;99.90;;;;;;5106948;27;20485;-72
2023/06/08 09:36:38;;;;;;;11.13;3.70;;;18.70;99.90;;;;;;5107998;28;20709;-72
2023/06/08 09:39:07;;;;;;;8.98;2.60;;;18.90;99.90;;;;;;5105905;28;20892;-72
2023/06/08 09:41:37;;;;;;;7.97;3.10;;;19.00;99.90;;;;;;5109408;28;20392;-73
2023/06/08 09:44:20;;;;;;;8.55;3.10;;;19.20;99.90;;;;;;5095458;28;20974;-72
2023/06/08 09:46:46;;;;;;;9.05;2.83;;;19.40;99.90;;;;;;5088619;28;20407;-73
2023/06/08 09:49:13;;;;;;;9.25;2.97;;;19.50;99.90;;;;;;5109405;28;21067;-72
2023/06/08 09:51:44;;;;;;;9.10;2.97;;;19.60;99.90;;;;;;5092723;28;20887;-72
2023/06/08 09:54:13;;;;;;;9.48;2.92;;;19.70;99.90;;;;;;5108252;27;20408;-72
2023/06/08 09:56:42;;;;;;;10.88;3.35;;;19.80;99.90;;;;;;5105505;28;20413;-72
2023/06/08 09:59:11;;;;;;;10.77;3.22;;;20.00;99.90;;;;;;5099281;28;20813;-73
2023/06/08 10:01:57;;;;;;;7.03;2.63;;;20.20;99.90;;;;;;5104716;28;20947;-72
2023/06/08 10:04:31;;;;;;;7.60;2.85;;;20.30;99.90;;;;;;5107513;28;20444;-72
2023/06/08 10:07:00;;;;;;;;;;;20.50;99.90;;;;;;5109339;28;20048;-72
2023/06/08 10:09:28;;;;;;;8.85;2.58;;;20.60;99.90;;;;;;5106783;28;19920;-73
2023/06/08 10:11:57;;;;;;;;;;;20.80;99.90;;;;;;5087500;28;20165;-73
2023/06/08 10:14:28;;;;;;;;;;;21.00;99.90;;;;;;5094479;28;20005;-73
2023/06/08 10:16:57;;;;;;;;;;;21.20;99.90;;;;;;5109121;27;19924;-72
2023/06/08 10:19:23;;;;;;;8.52;2.50;;;21.30;99.90;;;;;;5094299;28;19927;-73
2023/06/08 10:21:52;;;;;;;8.27;2.72;;;21.40;99.90;;;;;;5107379;28;20416;-73
2023/06/08 10:24:20;;;;;;;6.10;2.38;;;21.40;99.90;;;;;;5093043;28;20036;-73
2023/06/08 10:26:48;;;;;;;7.85;2.60;;;21.40;99.90;;;;;;5098431;28;20396;-72
2023/06/08 10:29:14;;;;;;;8.35;2.63;;;21.40;99.90;;;;;;5104596;28;20051;-73
2023/06/08 10:31:41;;;;;;;9.77;1.73;;;21.40;99.90;;;;;;5098039;28;20044;-73
2023/06/08 10:34:19;;;;;;;7.55;2.25;;;21.50;99.90;;;;;;5103595;28;20079;-72
2023/06/08 10:36:45;;;;;;;9.05;2.38;;;21.60;99.90;;;;;;5090322;28;20108;-72
2023/06/08 10:39:16;;;;;;;8.68;2.42;;;21.60;99.90;;;;;;5103578;28;20040;-73
2023/06/08 10:41:43;;;;;;;10.07;2.63;;;21.70;99.90;;;;;;5106426;28;20044;-73
2023/06/08 10:44:31;;;;;;;8.73;2.40;;;21.80;99.90;;;;;;5089048;28;20044;-73
2023/06/08 10:47:08;;;;;;;10.00;2.80;;;21.90;99.90;;;;;;5101027;28;20418;-73
2023/06/08 10:49:45;;;;;;;8.15;2.80;;;21.80;99.90;;;;;;5097331;28;20406;-73
2023/06/08 10:52:19;;;;;;;8.10;2.65;;;21.70;99.90;;;;;;5104991;28;20411;-72
2023/06/08 10:54:48;;;;;;;;;;;21.80;99.90;;;;;;5108581;28;20047;-73
2023/06/08 10:57:33;;;;;;;;;;;21.90;99.90;;;;;;5083451;28;20011;-72
2023/06/08 10:59:58;;;;;;;;;;;22.00;99.90;;;;;;5095995;28;19957;-73
2023/06/08 11:02:26;;;;;;;;;;;22.00;99.90;;;;;;5109518;28;19919;-72
2023/06/08 11:04:53;;;;;;;;;;;22.00;99.90;;;;;;5096489;28;19926;-73
2023/06/08 11:07:22;;;;;;;;;;;22.00;99.90;;;;;;5108902;28;19972;-73
2023/06/08 11:09:47;;;;;;;;;;;22.00;99.90;;;;;;5096575;28;19971;-73
2023/06/08 11:12:13;;;;;;;8.13;2.10;;;22.10;99.90;;;;;;5108576;28;19932;-73
2023/06/08 11:14:39;;;;;;;8.37;2.30;;;22.00;99.90;;;;;;5105013;28;20758;-72
2023/06/08 11:17:05;;;;;;;8.73;2.30;;;22.00;99.90;;;;;;5106734;28;20420;-73
2023/06/08 11:19:31;;;;;;;8.73;2.38;;;22.10;99.90;;;;;;5101130;28;20406;-72
2023/06/08 11:21:57;;;;;;;7.45;2.40;;;22.10;99.90;;;;;;5098839;28;20407;-73
2023/06/08 11:24:30;;;;;;;7.10;2.20;;;22.10;99.90;;;;;;5104262;28;20742;-73
2023/06/08 11:26:59;;;;;;;9.57;2.40;;;22.40;99.90;;;;;;5106620;28;20480;-73
2023/06/08 11:29:26;;;;;;;7.85;2.38;;;22.50;99.90;;;;;;5102523;28;20404;-73
2023/06/08 11:31:53;;;;;;;8.00;2.60;;;22.70;99.90;;;;;;5105739;28;20407;-73
2023/06/08 11:34:19;;;;;;;8.05;2.50;;;22.80;99.90;;;;;;5101998;28;20409;-73
2023/06/08 11:36:46;;;;;;;8.10;2.22;;;22.80;99.90;;;;;;5104937;28;20807;-72
2023/06/08 11:39:13;;;;;;;;;;;22.70;99.90;;;;;;5068072;28;21587;-73
2023/06/08 11:41:46;;;;;;;;;;;22.80;99.90;;;;;;5078920;28;19966;-73
2023/06/08 11:44:14;;;;;;;;;;;23.00;99.10;;;;;;5069780;28;20335;-73
2023/06/08 11:46:41;;;;;;;;;;;23.00;99.90;;;;;;5068432;28;19927;-73
2023/06/08 11:49:07;;;;;;;;;;;22.90;99.80;;;;;;5069506;28;20426;-72
2023/06/08 11:51:33;;;;;;;;;;;23.00;99.30;;;;;;5069710;28;20386;-73
2023/06/08 11:53:59;;;;;;;;;;;23.00;99.60;;;;;;5068172;28;19927;-73
2023/06/08 11:56:29;;;;;;;;;;;23.10;99.50;;;;;;5068662;28;19931;-73
2023/06/08 11:58:55;;;;;;;;;;;23.30;98.90;;;;;;5078313;28;19920;-73
2023/06/08 12:01:21;;;;;;;;;;;23.40;99.10;;;;;;5069128;28;20287;-73
2023/06/08 12:03:47;;;;;;;;;;;23.30;98.60;;;;;;5069870;28;19955;-73
2023/06/08 12:06:14;;;;;;;;;;;23.20;99.00;;;;;;5068482;28;20245;-73
2023/06/08 12:08:41;;;;;;;;;;;23.20;99.10;;;;;;5051965;28;20459;-73
2023/06/08 12:11:08;;;;;;;;;;;23.20;98.40;;;;;;5068091;28;19925;-73
2023/06/08 12:13:34;;;;;;;;;;;23.10;98.20;;;;;;5068365;28;19951;-73
2023/06/08 12:16:04;;;;;;;;;;;23.10;99.40;;;;;;5068425;28;20477;-73
2023/06/08 12:18:36;;;;;;;;;;;23.20;98.60;;;;;;5077167;28;19924;-73
2023/06/08 12:21:03;;;;;;;;;;;23.20;98.60;;;;;;5069591;28;19920;-73
2023/06/08 12:23:28;;;;;;;;;;;23.20;98.40;;;;;;5058871;28;19931;-73
2023/06/08 12:25:54;;;;;;;;;;;23.30;98.00;;;;;;5069710;28;19929;-73
2023/06/08 12:28:23;;;;;;;;;;;23.20;97.50;;;;;;5069082;28;20371;-73
2023/06/08 12:30:49;;;;;;;;;;;23.20;98.10;;;;;;5069218;28;19928;-73
2023/06/08 12:33:18;;;;;;;;;;;23.20;98.00;;;;;;5067488;28;19982;-72
2023/06/08 12:35:45;;;;;;;;;;;23.30;97.40;;;;;;5067873;28;19928;-73
2023/06/08 12:38:11;;;;;;;7.57;1.70;;;23.30;97.50;;;;;;5074731;28;20743;-73
2023/06/08 12:40:37;;;;;;;9.05;2.28;;;23.30;97.80;;;;;;5076324;28;20482;-73
2023/06/08 12:43:03;;;;;;;7.10;1.77;;;23.40;98.30;;;;;;5066508;28;20494;-73
2023/06/08 12:45:28;;;;;;;9.75;1.95;;;23.50;97.90;;;;;;5069178;28;20408;-73
2023/06/08 12:47:55;;;;;;;5.83;1.70;;;23.50;97.90;;;;;;5073454;28;20407;-73
2023/06/08 12:50:22;;;;;;;7.97;1.90;;;23.60;98.20;;;;;;5066853;28;20411;-72
2023/06/08 12:52:49;;;;;;;7.65;2.03;;;23.60;97.50;;;;;;5045813;28;20989;-73